sensor_id;sensor_type;location;lat;lon;timestamp;P1;durP1;ratioP1;P2;durP2;ratioP2
76953;SDS011;65893;51.698;-0.292;2023-06-22T00:00:50;9.10;;;4.03;;
76953;SDS011;65893;51.698;-0.292;2023-06-22T00:03:20;9.82;;;4.45;;
76953;SDS011;65893;51.698;-0.292;2023-06-22T00:05:46;9.50;;;4.10;;
76953;SDS011;65893;51.698;-0.292;2023-06-22T00:08:12;10.63;;;4.10;;
76953;SDS011;65893;51.698;-0.292;2023-06-22T00:10:39;8.40;;;4.03;;
76953;SDS011;65893;51.698;-0.292;2023-06-22T00:13:05;8.43;;;4.53;;
76953;SDS011;65893;51.698;-0.292;2023-06-22T00:15:32;10.32;;;4.53;;
76953;SDS011;65893;51.698;-0.292;2023-06-22T00:17:58;9.93;;;4.07;;
76953;SDS011;65893;51.698;-0.292;2023-06-22T00:20:24;10.85;;;4.10;;
76953;SDS011;65893;51.698;-0.292;2023-06-22T00:22:57;10.25;;;4.07;;
76953;SDS011;65893;51.698;-0.292;2023-06-22T00:25:23;15.05;;;4.35;;
76953;SDS011;65893;51.698;-0.292;2023-06-22T00:27:49;8.38;;;4.25;;
76953;SDS011;65893;51.698;-0.292;2023-06-22T00:30:16;9.20;;;4.38;;
76953;SDS011;65893;51.698;-0.292;2023-06-22T00:32:45;10.98;;;4.90;;
76953;SDS011;65893;51.698;-0.292;2023-06-22T00:35:11;9.75;;;4.53;;
76953;SDS011;65893;51.698;-0.292;2023-06-22T00:37:38;10.05;;;4.20;;
76953;SDS011;65893;51.698;-0.292;2023-06-22T00:40:07;9.80;;;4.60;;
76953;SDS011;65893;51.698;-0.292;2023-06-22T00:42:36;8.45;;;3.70;;
76953;SDS011;65893;51.698;-0.292;2023-06-22T00:45:02;13.50;;;4.90;;
76953;SDS011;65893;51.698;-0.292;2023-06-22T00:47:28;9.57;;;4.60;;
76953;SDS011;65893;51.698;-0.292;2023-06-22T00:49:54;9.00;;;4.80;;
76953;SDS011;65893;51.698;-0.292;2023-06-22T00:52:21;11.48;;;4.50;;
76953;SDS011;65893;51.698;-0.292;2023-06-22T00:54:52;8.77;;;3.88;;
76953;SDS011;65893;51.698;-0.292;2023-06-22T00:57:18;9.93;;;4.53;;
76953;SDS011;65893;51.698;-0.292;2023-06-22T00:59:44;8.02;;;4.40;;
76953;SDS011;65893;51.698;-0.292;2023-06-22T01:02:11;9.15;;;4.28;;
76953;SDS011;65893;51.698;-0.292;2023-06-22T01:04:37;11.98;;;4.30;;
76953;SDS011;65893;51.698;-0.292;2023-06-22T01:10:02;10.02;;;5.15;;
76953;SDS011;65893;51.698;-0.292;2023-06-22T01:12:30;12.20;;;4.53;;
76953;SDS011;65893;51.698;-0.292;2023-06-22T01:15:04;12.43;;;5.32;;
76953;SDS011;65893;51.698;-0.292;2023-06-22T01:17:34;13.45;;;5.22;;
76953;SDS011;65893;51.698;-0.292;2023-06-22T01:20:01;11.38;;;4.95;;
76953;SDS011;65893;51.698;-0.292;2023-06-22T01:22:30;10.15;;;4.80;;
76953;SDS011;65893;51.698;-0.292;2023-06-22T01:29:59;9.82;;;4.22;;
76953;SDS011;65893;51.698;-0.292;2023-06-22T01:32:31;8.88;;;4.10;;
76953;SDS011;65893;51.698;-0.292;2023-06-22T01:35:01;11.48;;;3.75;;
76953;SDS011;65893;51.698;-0.292;2023-06-22T01:37:29;9.23;;;4.80;;
76953;SDS011;65893;51.698;-0.292;2023-06-22T01:39:57;9.30;;;4.65;;
76953;SDS011;65893;51.698;-0.292;2023-06-22T01:42:23;12.05;;;5.00;;
76953;SDS011;65893;51.698;-0.292;2023-06-22T01:44:50;11.68;;;4.80;;
76953;SDS011;65893;51.698;-0.292;2023-06-22T01:47:17;11.77;;;4.57;;
76953;SDS011;65893;51.698;-0.292;2023-06-22T01:49:43;10.35;;;4.72;;
76953;SDS011;65893;51.698;-0.292;2023-06-22T01:52:09;9.50;;;4.28;;
76953;SDS011;65893;51.698;-0.292;2023-06-22T01:54:35;11.02;;;4.75;;
76953;SDS011;65893;51.698;-0.292;2023-06-22T01:57:01;9.02;;;4.25;;
76953;SDS011;65893;51.698;-0.292;2023-06-22T02:00:10;13.48;;;4.97;;
76953;SDS011;65893;51.698;-0.292;2023-06-22T02:02:16;11.80;;;5.05;;
76953;SDS011;65893;51.698;-0.292;2023-06-22T02:04:51;10.32;;;4.53;;
76953;SDS011;65893;51.698;-0.292;2023-06-22T02:07:17;14.32;;;5.32;;
76953;SDS011;65893;51.698;-0.292;2023-06-22T02:09:46;10.25;;;4.85;;
76953;SDS011;65893;51.698;-0.292;2023-06-22T02:12:14;9.98;;;5.00;;
76953;SDS011;65893;51.698;-0.292;2023-06-22T02:14:42;11.90;;;4.60;;
76953;SDS011;65893;51.698;-0.292;2023-06-22T02:17:09;10.15;;;4.22;;
76953;SDS011;65893;51.698;-0.292;2023-06-22T02:19:38;10.10;;;5.35;;
76953;SDS011;65893;51.698;-0.292;2023-06-22T02:22:04;9.07;;;4.88;;
76953;SDS011;65893;51.698;-0.292;2023-06-22T02:24:30;10.77;;;5.60;;
76953;SDS011;65893;51.698;-0.292;2023-06-22T02:27:00;11.82;;;5.05;;
76953;SDS011;65893;51.698;-0.292;2023-06-22T02:29:27;8.98;;;5.00;;
76953;SDS011;65893;51.698;-0.292;2023-06-22T02:31:53;12.52;;;5.65;;
76953;SDS011;65893;51.698;-0.292;2023-06-22T02:34:19;11.48;;;5.30;;
76953;SDS011;65893;51.698;-0.292;2023-06-22T02:36:46;13.02;;;5.38;;
76953;SDS011;65893;51.698;-0.292;2023-06-22T02:39:16;10.57;;;5.20;;
76953;SDS011;65893;51.698;-0.292;2023-06-22T02:41:42;12.10;;;5.13;;
76953;SDS011;65893;51.698;-0.292;2023-06-22T02:44:08;10.30;;;4.88;;
76953;SDS011;65893;51.698;-0.292;2023-06-22T02:46:34;10.82;;;5.55;;
76953;SDS011;65893;51.698;-0.292;2023-06-22T02:49:01;10.93;;;5.47;;
76953;SDS011;65893;51.698;-0.292;2023-06-22T02:51:27;11.38;;;5.15;;
76953;SDS011;65893;51.698;-0.292;2023-06-22T02:53:53;14.18;;;5.30;;
76953;SDS011;65893;51.698;-0.292;2023-06-22T02:56:22;9.30;;;4.82;;
76953;SDS011;65893;51.698;-0.292;2023-06-22T02:58:50;12.15;;;6.03;;
76953;SDS011;65893;51.698;-0.292;2023-06-22T03:01:16;10.68;;;5.20;;
76953;SDS011;65893;51.698;-0.292;2023-06-22T03:06:14;9.10;;;4.88;;
76953;SDS011;65893;51.698;-0.292;2023-06-22T03:08:40;13.77;;;5.90;;
76953;SDS011;65893;51.698;-0.292;2023-06-22T03:11:06;15.00;;;5.32;;
76953;SDS011;65893;51.698;-0.292;2023-06-22T03:13:33;14.00;;;5.68;;
76953;SDS011;65893;51.698;-0.292;2023-06-22T03:15:59;12.50;;;5.13;;
76953;SDS011;65893;51.698;-0.292;2023-06-22T03:18:25;12.75;;;5.55;;
76953;SDS011;65893;51.698;-0.292;2023-06-22T03:20:51;15.00;;;5.85;;
76953;SDS011;65893;51.698;-0.292;2023-06-22T03:23:17;10.55;;;5.35;;
76953;SDS011;65893;51.698;-0.292;2023-06-22T03:25:43;11.50;;;5.13;;
76953;SDS011;65893;51.698;-0.292;2023-06-22T03:28:12;11.05;;;4.85;;
76953;SDS011;65893;51.698;-0.292;2023-06-22T03:30:38;11.38;;;5.47;;
76953;SDS011;65893;51.698;-0.292;2023-06-22T03:33:04;13.02;;;4.88;;
76953;SDS011;65893;51.698;-0.292;2023-06-22T03:35:30;15.35;;;6.28;;
76953;SDS011;65893;51.698;-0.292;2023-06-22T03:37:56;13.90;;;5.78;;
76953;SDS011;65893;51.698;-0.292;2023-06-22T03:40:22;10.75;;;5.82;;
76953;SDS011;65893;51.698;-0.292;2023-06-22T03:42:48;11.05;;;5.00;;
76953;SDS011;65893;51.698;-0.292;2023-06-22T03:45:14;10.32;;;5.35;;
76953;SDS011;65893;51.698;-0.292;2023-06-22T03:47:40;13.48;;;6.18;;
76953;SDS011;65893;51.698;-0.292;2023-06-22T03:50:06;11.68;;;5.50;;
76953;SDS011;65893;51.698;-0.292;2023-06-22T03:52:32;11.82;;;5.55;;
76953;SDS011;65893;51.698;-0.292;2023-06-22T03:54:59;10.45;;;5.30;;
76953;SDS011;65893;51.698;-0.292;2023-06-22T03:57:25;12.07;;;4.95;;
76953;SDS011;65893;51.698;-0.292;2023-06-22T03:59:51;12.52;;;6.00;;
76953;SDS011;65893;51.698;-0.292;2023-06-22T04:02:18;11.32;;;5.63;;
76953;SDS011;65893;51.698;-0.292;2023-06-22T04:04:44;11.05;;;5.88;;
76953;SDS011;65893;51.698;-0.292;2023-06-22T04:07:10;12.10;;;5.88;;
76953;SDS011;65893;51.698;-0.292;2023-06-22T04:09:36;13.90;;;5.50;;
76953;SDS011;65893;51.698;-0.292;2023-06-22T04:12:02;13.93;;;6.05;;
76953;SDS011;65893;51.698;-0.292;2023-06-22T04:14:28;12.07;;;5.47;;
76953;SDS011;65893;51.698;-0.292;2023-06-22T04:16:54;10.20;;;4.97;;
76953;SDS011;65893;51.698;-0.292;2023-06-22T04:19:20;14.52;;;5.53;;
76953;SDS011;65893;51.698;-0.292;2023-06-22T04:21:46;13.68;;;5.43;;
76953;SDS011;65893;51.698;-0.292;2023-06-22T04:24:13;10.52;;;5.47;;
76953;SDS011;65893;51.698;-0.292;2023-06-22T04:26:39;10.60;;;5.22;;
76953;SDS011;65893;51.698;-0.292;2023-06-22T04:29:07;10.75;;;5.78;;
76953;SDS011;65893;51.698;-0.292;2023-06-22T04:31:36;9.70;;;5.13;;
76953;SDS011;65893;51.698;-0.292;2023-06-22T04:34:06;15.85;;;5.38;;
76953;SDS011;65893;51.698;-0.292;2023-06-22T04:36:36;11.65;;;5.35;;
76953;SDS011;65893;51.698;-0.292;2023-06-22T04:39:06;15.43;;;5.28;;
76953;SDS011;65893;51.698;-0.292;2023-06-22T04:41:35;10.80;;;5.10;;
76953;SDS011;65893;51.698;-0.292;2023-06-22T04:44:09;11.07;;;5.10;;
76953;SDS011;65893;51.698;-0.292;2023-06-22T04:46:36;13.43;;;5.30;;
76953;SDS011;65893;51.698;-0.292;2023-06-22T04:51:44;10.77;;;5.20;;
76953;SDS011;65893;51.698;-0.292;2023-06-22T04:54:10;9.73;;;4.50;;
76953;SDS011;65893;51.698;-0.292;2023-06-22T04:56:36;10.65;;;5.50;;
76953;SDS011;65893;51.698;-0.292;2023-06-22T04:59:02;15.27;;;5.70;;
76953;SDS011;65893;51.698;-0.292;2023-06-22T05:01:28;13.75;;;6.35;;
76953;SDS011;65893;51.698;-0.292;2023-06-22T05:03:56;13.95;;;6.00;;
76953;SDS011;65893;51.698;-0.292;2023-06-22T05:06:23;9.57;;;4.90;;
76953;SDS011;65893;51.698;-0.292;2023-06-22T05:08:55;9.80;;;5.47;;
76953;SDS011;65893;51.698;-0.292;2023-06-22T05:11:25;13.25;;;6.30;;
76953;SDS011;65893;51.698;-0.292;2023-06-22T05:13:51;13.35;;;5.90;;
76953;SDS011;65893;51.698;-0.292;2023-06-22T05:16:18;11.32;;;5.45;;
76953;SDS011;65893;51.698;-0.292;2023-06-22T05:18:48;14.73;;;5.65;;
76953;SDS011;65893;51.698;-0.292;2023-06-22T05:21:14;11.07;;;6.75;;
76953;SDS011;65893;51.698;-0.292;2023-06-22T05:23:40;12.05;;;6.20;;
76953;SDS011;65893;51.698;-0.292;2023-06-22T05:26:06;14.70;;;7.10;;
76953;SDS011;65893;51.698;-0.292;2023-06-22T05:28:34;16.52;;;6.18;;
76953;SDS011;65893;51.698;-0.292;2023-06-22T05:31:00;15.25;;;5.72;;
76953;SDS011;65893;51.698;-0.292;2023-06-22T05:33:26;10.77;;;5.28;;
76953;SDS011;65893;51.698;-0.292;2023-06-22T05:35:52;10.48;;;5.38;;
76953;SDS011;65893;51.698;-0.292;2023-06-22T05:38:18;11.82;;;5.80;;
76953;SDS011;65893;51.698;-0.292;2023-06-22T05:40:44;14.18;;;6.03;;
76953;SDS011;65893;51.698;-0.292;2023-06-22T05:43:10;13.45;;;5.55;;
76953;SDS011;65893;51.698;-0.292;2023-06-22T05:45:36;12.20;;;5.40;;
76953;SDS011;65893;51.698;-0.292;2023-06-22T05:48:02;10.40;;;5.32;;
76953;SDS011;65893;51.698;-0.292;2023-06-22T05:50:28;16.88;;;5.60;;
76953;SDS011;65893;51.698;-0.292;2023-06-22T05:52:54;13.32;;;5.47;;
76953;SDS011;65893;51.698;-0.292;2023-06-22T05:55:20;10.27;;;4.90;;
76953;SDS011;65893;51.698;-0.292;2023-06-22T05:57:46;9.95;;;4.95;;
76953;SDS011;65893;51.698;-0.292;2023-06-22T06:00:12;12.23;;;5.00;;
76953;SDS011;65893;51.698;-0.292;2023-06-22T06:02:39;10.68;;;5.47;;
76953;SDS011;65893;51.698;-0.292;2023-06-22T06:05:13;12.05;;;5.18;;
76953;SDS011;65893;51.698;-0.292;2023-06-22T06:07:40;13.55;;;4.80;;
76953;SDS011;65893;51.698;-0.292;2023-06-22T06:10:07;11.05;;;5.03;;
76953;SDS011;65893;51.698;-0.292;2023-06-22T06:12:33;12.38;;;6.05;;
76953;SDS011;65893;51.698;-0.292;2023-06-22T06:14:59;12.02;;;4.95;;
76953;SDS011;65893;51.698;-0.292;2023-06-22T06:17:25;11.85;;;5.13;;
76953;SDS011;65893;51.698;-0.292;2023-06-22T06:19:51;13.82;;;5.85;;
76953;SDS011;65893;51.698;-0.292;2023-06-22T06:22:17;12.65;;;5.20;;
76953;SDS011;65893;51.698;-0.292;2023-06-22T06:24:45;13.60;;;6.70;;
76953;SDS011;65893;51.698;-0.292;2023-06-22T06:27:12;13.30;;;5.95;;
76953;SDS011;65893;51.698;-0.292;2023-06-22T06:29:38;13.75;;;5.90;;
76953;SDS011;65893;51.698;-0.292;2023-06-22T06:32:04;10.63;;;5.22;;
76953;SDS011;65893;51.698;-0.292;2023-06-22T06:34:31;18.42;;;6.03;;
76953;SDS011;65893;51.698;-0.292;2023-06-22T06:36:57;13.15;;;5.85;;
76953;SDS011;65893;51.698;-0.292;2023-06-22T06:39:23;14.32;;;6.15;;
76953;SDS011;65893;51.698;-0.292;2023-06-22T06:41:49;16.33;;;6.13;;
76953;SDS011;65893;51.698;-0.292;2023-06-22T06:44:16;13.93;;;5.93;;
76953;SDS011;65893;51.698;-0.292;2023-06-22T06:46:42;16.67;;;6.13;;
76953;SDS011;65893;51.698;-0.292;2023-06-22T06:49:08;14.65;;;5.28;;
76953;SDS011;65893;51.698;-0.292;2023-06-22T06:51:34;17.52;;;5.40;;
76953;SDS011;65893;51.698;-0.292;2023-06-22T06:54:00;16.50;;;5.65;;
76953;SDS011;65893;51.698;-0.292;2023-06-22T06:56:26;18.40;;;5.35;;
76953;SDS011;65893;51.698;-0.292;2023-06-22T06:58:52;23.17;;;6.68;;
76953;SDS011;65893;51.698;-0.292;2023-06-22T07:01:18;28.40;;;6.95;;
76953;SDS011;65893;51.698;-0.292;2023-06-22T07:03:44;18.30;;;6.35;;
76953;SDS011;65893;51.698;-0.292;2023-06-22T07:06:10;14.60;;;5.32;;
76953;SDS011;65893;51.698;-0.292;2023-06-22T07:08:36;19.92;;;7.38;;
76953;SDS011;65893;51.698;-0.292;2023-06-22T07:11:04;16.00;;;5.78;;
76953;SDS011;65893;51.698;-0.292;2023-06-22T07:13:30;16.35;;;6.10;;
76953;SDS011;65893;51.698;-0.292;2023-06-22T07:15:56;16.70;;;5.68;;
76953;SDS011;65893;51.698;-0.292;2023-06-22T07:18:23;15.85;;;5.78;;
76953;SDS011;65893;51.698;-0.292;2023-06-22T07:20:49;14.70;;;5.38;;
76953;SDS011;65893;51.698;-0.292;2023-06-22T07:23:16;13.02;;;5.25;;
76953;SDS011;65893;51.698;-0.292;2023-06-22T07:25:42;13.52;;;5.47;;
76953;SDS011;65893;51.698;-0.292;2023-06-22T07:28:08;11.98;;;6.00;;
76953;SDS011;65893;51.698;-0.292;2023-06-22T07:30:35;13.98;;;5.78;;
76953;SDS011;65893;51.698;-0.292;2023-06-22T07:33:01;13.27;;;5.45;;
76953;SDS011;65893;51.698;-0.292;2023-06-22T07:35:33;14.27;;;6.10;;
76953;SDS011;65893;51.698;-0.292;2023-06-22T07:37:59;11.52;;;5.90;;
76953;SDS011;65893;51.698;-0.292;2023-06-22T07:40:25;10.52;;;5.05;;
76953;SDS011;65893;51.698;-0.292;2023-06-22T07:42:51;11.63;;;4.68;;
76953;SDS011;65893;51.698;-0.292;2023-06-22T07:45:18;13.70;;;5.82;;
76953;SDS011;65893;51.698;-0.292;2023-06-22T07:47:44;10.98;;;4.85;;
76953;SDS011;65893;51.698;-0.292;2023-06-22T07:50:10;12.35;;;4.93;;
76953;SDS011;65893;51.698;-0.292;2023-06-22T07:52:36;11.32;;;5.47;;
76953;SDS011;65893;51.698;-0.292;2023-06-22T07:55:02;10.43;;;5.20;;
76953;SDS011;65893;51.698;-0.292;2023-06-22T07:57:31;9.27;;;4.93;;
76953;SDS011;65893;51.698;-0.292;2023-06-22T07:59:59;11.65;;;5.90;;
76953;SDS011;65893;51.698;-0.292;2023-06-22T08:02:26;14.98;;;5.30;;
76953;SDS011;65893;51.698;-0.292;2023-06-22T08:04:52;12.35;;;5.30;;
76953;SDS011;65893;51.698;-0.292;2023-06-22T08:07:18;10.80;;;4.75;;
76953;SDS011;65893;51.698;-0.292;2023-06-22T08:09:48;12.18;;;5.25;;
76953;SDS011;65893;51.698;-0.292;2023-06-22T08:12:15;12.07;;;5.55;;
76953;SDS011;65893;51.698;-0.292;2023-06-22T08:14:42;9.90;;;4.85;;
76953;SDS011;65893;51.698;-0.292;2023-06-22T08:17:11;12.65;;;4.95;;
76953;SDS011;65893;51.698;-0.292;2023-06-22T08:19:37;9.30;;;4.25;;
76953;SDS011;65893;51.698;-0.292;2023-06-22T08:22:03;9.02;;;4.18;;
76953;SDS011;65893;51.698;-0.292;2023-06-22T08:24:29;10.23;;;4.60;;
76953;SDS011;65893;51.698;-0.292;2023-06-22T08:26:55;10.52;;;4.43;;
76953;SDS011;65893;51.698;-0.292;2023-06-22T08:29:22;8.85;;;4.20;;
76953;SDS011;65893;51.698;-0.292;2023-06-22T08:31:48;9.35;;;4.40;;
76953;SDS011;65893;51.698;-0.292;2023-06-22T08:34:13;11.68;;;4.20;;
76953;SDS011;65893;51.698;-0.292;2023-06-22T08:36:40;10.35;;;4.05;;
76953;SDS011;65893;51.698;-0.292;2023-06-22T08:39:17;8.38;;;3.88;;
76953;SDS011;65893;51.698;-0.292;2023-06-22T08:41:43;15.00;;;4.47;;
76953;SDS011;65893;51.698;-0.292;2023-06-22T08:44:10;9.82;;;4.68;;
76953;SDS011;65893;51.698;-0.292;2023-06-22T08:46:36;7.13;;;4.05;;
76953;SDS011;65893;51.698;-0.292;2023-06-22T08:49:03;10.85;;;4.38;;
76953;SDS011;65893;51.698;-0.292;2023-06-22T08:51:30;10.43;;;4.07;;
76953;SDS011;65893;51.698;-0.292;2023-06-22T08:53:56;7.85;;;4.07;;
76953;SDS011;65893;51.698;-0.292;2023-06-22T08:56:22;13.90;;;3.90;;
76953;SDS011;65893;51.698;-0.292;2023-06-22T08:58:48;9.80;;;3.60;;
76953;SDS011;65893;51.698;-0.292;2023-06-22T09:01:14;9.10;;;3.70;;
76953;SDS011;65893;51.698;-0.292;2023-06-22T09:03:40;7.68;;;3.30;;
76953;SDS011;65893;51.698;-0.292;2023-06-22T09:06:06;8.65;;;4.05;;
76953;SDS011;65893;51.698;-0.292;2023-06-22T09:08:34;7.78;;;3.17;;
76953;SDS011;65893;51.698;-0.292;2023-06-22T09:11:00;9.75;;;4.13;;
76953;SDS011;65893;51.698;-0.292;2023-06-22T09:13:27;10.70;;;4.20;;
76953;SDS011;65893;51.698;-0.292;2023-06-22T09:15:53;9.45;;;3.88;;
76953;SDS011;65893;51.698;-0.292;2023-06-22T09:18:19;7.35;;;3.80;;
76953;SDS011;65893;51.698;-0.292;2023-06-22T09:20:45;10.02;;;3.80;;
76953;SDS011;65893;51.698;-0.292;2023-06-22T09:23:11;6.70;;;3.35;;
76953;SDS011;65893;51.698;-0.292;2023-06-22T09:25:38;9.55;;;3.78;;
76953;SDS011;65893;51.698;-0.292;2023-06-22T09:28:05;9.38;;;3.85;;
76953;SDS011;65893;51.698;-0.292;2023-06-22T09:30:31;7.32;;;3.35;;
76953;SDS011;65893;51.698;-0.292;2023-06-22T09:32:57;8.50;;;3.88;;
76953;SDS011;65893;51.698;-0.292;2023-06-22T09:35:23;7.95;;;3.70;;
76953;SDS011;65893;51.698;-0.292;2023-06-22T09:37:49;6.78;;;3.10;;
76953;SDS011;65893;51.698;-0.292;2023-06-22T09:40:15;8.27;;;3.10;;
76953;SDS011;65893;51.698;-0.292;2023-06-22T09:42:42;7.57;;;3.67;;
76953;SDS011;65893;51.698;-0.292;2023-06-22T09:45:08;9.00;;;3.35;;
76953;SDS011;65893;51.698;-0.292;2023-06-22T09:47:34;9.23;;;3.72;;
76953;SDS011;65893;51.698;-0.292;2023-06-22T09:50:00;10.52;;;3.63;;
76953;SDS011;65893;51.698;-0.292;2023-06-22T09:52:26;9.63;;;3.67;;
76953;SDS011;65893;51.698;-0.292;2023-06-22T09:54:52;7.00;;;3.40;;
76953;SDS011;65893;51.698;-0.292;2023-06-22T09:57:18;7.35;;;3.40;;
76953;SDS011;65893;51.698;-0.292;2023-06-22T09:59:44;6.88;;;3.22;;
76953;SDS011;65893;51.698;-0.292;2023-06-22T10:02:10;8.00;;;3.65;;
76953;SDS011;65893;51.698;-0.292;2023-06-22T10:04:36;8.20;;;3.40;;
76953;SDS011;65893;51.698;-0.292;2023-06-22T10:07:02;4.82;;;2.28;;
76953;SDS011;65893;51.698;-0.292;2023-06-22T10:09:28;6.32;;;3.28;;
76953;SDS011;65893;51.698;-0.292;2023-06-22T10:11:54;7.82;;;3.38;;
76953;SDS011;65893;51.698;-0.292;2023-06-22T10:14:20;6.80;;;2.90;;
76953;SDS011;65893;51.698;-0.292;2023-06-22T10:16:47;7.63;;;3.15;;
76953;SDS011;65893;51.698;-0.292;2023-06-22T10:19:13;8.60;;;3.03;;
76953;SDS011;65893;51.698;-0.292;2023-06-22T10:21:39;6.55;;;2.90;;
76953;SDS011;65893;51.698;-0.292;2023-06-22T10:24:05;8.75;;;3.03;;
76953;SDS011;65893;51.698;-0.292;2023-06-22T10:26:32;9.90;;;3.42;;
76953;SDS011;65893;51.698;-0.292;2023-06-22T10:28:59;8.23;;;3.30;;
76953;SDS011;65893;51.698;-0.292;2023-06-22T10:31:25;7.80;;;3.05;;
76953;SDS011;65893;51.698;-0.292;2023-06-22T10:33:52;10.48;;;3.78;;
76953;SDS011;65893;51.698;-0.292;2023-06-22T10:36:18;6.90;;;2.83;;
76953;SDS011;65893;51.698;-0.292;2023-06-22T10:38:44;8.82;;;2.58;;
76953;SDS011;65893;51.698;-0.292;2023-06-22T10:41:12;6.03;;;2.75;;
76953;SDS011;65893;51.698;-0.292;2023-06-22T10:43:38;9.32;;;2.80;;
76953;SDS011;65893;51.698;-0.292;2023-06-22T10:46:04;8.10;;;3.05;;
76953;SDS011;65893;51.698;-0.292;2023-06-22T10:48:30;5.55;;;2.67;;
76953;SDS011;65893;51.698;-0.292;2023-06-22T10:50:56;5.10;;;2.55;;
76953;SDS011;65893;51.698;-0.292;2023-06-22T10:53:22;6.25;;;2.03;;
76953;SDS011;65893;51.698;-0.292;2023-06-22T10:55:48;6.18;;;2.33;;
76953;SDS011;65893;51.698;-0.292;2023-06-22T10:58:14;9.38;;;3.55;;
76953;SDS011;65893;51.698;-0.292;2023-06-22T11:00:40;6.60;;;2.53;;
76953;SDS011;65893;51.698;-0.292;2023-06-22T11:03:06;6.63;;;2.72;;
76953;SDS011;65893;51.698;-0.292;2023-06-22T11:05:32;4.65;;;2.28;;
76953;SDS011;65893;51.698;-0.292;2023-06-22T11:07:58;5.40;;;2.40;;
76953;SDS011;65893;51.698;-0.292;2023-06-22T11:10:25;7.32;;;2.65;;
76953;SDS011;65893;51.698;-0.292;2023-06-22T11:12:52;6.25;;;2.22;;
76953;SDS011;65893;51.698;-0.292;2023-06-22T11:15:18;6.00;;;2.92;;
76953;SDS011;65893;51.698;-0.292;2023-06-22T11:17:44;9.85;;;3.65;;
76953;SDS011;65893;51.698;-0.292;2023-06-22T11:20:11;6.45;;;2.88;;
76953;SDS011;65893;51.698;-0.292;2023-06-22T11:22:37;5.40;;;2.28;;
76953;SDS011;65893;51.698;-0.292;2023-06-22T11:25:06;6.82;;;3.15;;
76953;SDS011;65893;51.698;-0.292;2023-06-22T11:27:32;8.07;;;2.38;;
76953;SDS011;65893;51.698;-0.292;2023-06-22T11:29:58;4.78;;;2.17;;
76953;SDS011;65893;51.698;-0.292;2023-06-22T11:32:25;7.40;;;2.88;;
76953;SDS011;65893;51.698;-0.292;2023-06-22T11:34:51;8.25;;;2.78;;
76953;SDS011;65893;51.698;-0.292;2023-06-22T11:37:17;8.93;;;3.10;;
76953;SDS011;65893;51.698;-0.292;2023-06-22T11:39:43;7.07;;;2.90;;
76953;SDS011;65893;51.698;-0.292;2023-06-22T11:42:09;8.38;;;2.72;;
76953;SDS011;65893;51.698;-0.292;2023-06-22T11:44:35;4.88;;;2.00;;
76953;SDS011;65893;51.698;-0.292;2023-06-22T11:47:01;6.90;;;2.65;;
76953;SDS011;65893;51.698;-0.292;2023-06-22T11:49:29;9.40;;;2.63;;
76953;SDS011;65893;51.698;-0.292;2023-06-22T11:51:55;6.00;;;2.45;;
76953;SDS011;65893;51.698;-0.292;2023-06-22T11:54:21;7.57;;;2.88;;
76953;SDS011;65893;51.698;-0.292;2023-06-22T11:56:47;3.20;;;1.40;;
76953;SDS011;65893;51.698;-0.292;2023-06-22T11:59:13;6.80;;;2.08;;
76953;SDS011;65893;51.698;-0.292;2023-06-22T12:01:39;7.88;;;2.75;;
76953;SDS011;65893;51.698;-0.292;2023-06-22T12:04:07;8.15;;;2.90;;
76953;SDS011;65893;51.698;-0.292;2023-06-22T12:06:37;6.60;;;2.50;;
76953;SDS011;65893;51.698;-0.292;2023-06-22T12:09:03;5.50;;;2.25;;
76953;SDS011;65893;51.698;-0.292;2023-06-22T12:11:30;5.53;;;2.20;;
76953;SDS011;65893;51.698;-0.292;2023-06-22T12:13:56;7.80;;;2.63;;
76953;SDS011;65893;51.698;-0.292;2023-06-22T12:16:26;5.47;;;2.45;;
76953;SDS011;65893;51.698;-0.292;2023-06-22T12:18:52;5.40;;;2.20;;
76953;SDS011;65893;51.698;-0.292;2023-06-22T12:21:19;5.68;;;2.67;;
76953;SDS011;65893;51.698;-0.292;2023-06-22T12:23:45;5.65;;;2.70;;
76953;SDS011;65893;51.698;-0.292;2023-06-22T12:26:11;5.72;;;2.30;;
76953;SDS011;65893;51.698;-0.292;2023-06-22T12:28:37;5.80;;;2.55;;
76953;SDS011;65893;51.698;-0.292;2023-06-22T12:31:03;5.40;;;2.47;;
76953;SDS011;65893;51.698;-0.292;2023-06-22T12:33:29;7.80;;;2.80;;
76953;SDS011;65893;51.698;-0.292;2023-06-22T12:35:55;5.55;;;2.17;;
76953;SDS011;65893;51.698;-0.292;2023-06-22T12:38:21;7.32;;;2.88;;
76953;SDS011;65893;51.698;-0.292;2023-06-22T12:40:49;5.25;;;2.53;;
76953;SDS011;65893;51.698;-0.292;2023-06-22T12:43:15;6.43;;;2.75;;
76953;SDS011;65893;51.698;-0.292;2023-06-22T12:45:41;6.63;;;2.90;;
76953;SDS011;65893;51.698;-0.292;2023-06-22T12:48:07;5.78;;;2.47;;
76953;SDS011;65893;51.698;-0.292;2023-06-22T12:50:34;6.93;;;2.35;;
76953;SDS011;65893;51.698;-0.292;2023-06-22T12:53:00;5.88;;;2.55;;
76953;SDS011;65893;51.698;-0.292;2023-06-22T12:55:28;8.05;;;2.88;;
76953;SDS011;65893;51.698;-0.292;2023-06-22T12:57:54;5.90;;;2.13;;
76953;SDS011;65893;51.698;-0.292;2023-06-22T13:00:22;6.07;;;2.78;;
76953;SDS011;65893;51.698;-0.292;2023-06-22T13:02:48;7.07;;;2.63;;
76953;SDS011;65893;51.698;-0.292;2023-06-22T13:05:14;5.35;;;2.40;;
76953;SDS011;65893;51.698;-0.292;2023-06-22T13:07:40;6.95;;;2.78;;
76953;SDS011;65893;51.698;-0.292;2023-06-22T13:10:07;5.75;;;2.53;;
76953;SDS011;65893;51.698;-0.292;2023-06-22T13:12:34;6.57;;;2.53;;
76953;SDS011;65893;51.698;-0.292;2023-06-22T13:15:00;7.75;;;2.80;;
76953;SDS011;65893;51.698;-0.292;2023-06-22T13:17:27;7.50;;;2.55;;
76953;SDS011;65893;51.698;-0.292;2023-06-22T13:19:53;7.43;;;2.78;;
76953;SDS011;65893;51.698;-0.292;2023-06-22T13:22:26;4.80;;;2.10;;
76953;SDS011;65893;51.698;-0.292;2023-06-22T13:24:53;9.20;;;2.58;;
76953;SDS011;65893;51.698;-0.292;2023-06-22T13:27:19;6.30;;;3.13;;
76953;SDS011;65893;51.698;-0.292;2023-06-22T13:29:46;10.05;;;2.80;;
76953;SDS011;65893;51.698;-0.292;2023-06-22T13:32:12;8.55;;;2.85;;
76953;SDS011;65893;51.698;-0.292;2023-06-22T13:34:39;6.38;;;2.75;;
76953;SDS011;65893;51.698;-0.292;2023-06-22T13:37:05;5.97;;;2.30;;
76953;SDS011;65893;51.698;-0.292;2023-06-22T13:39:31;7.20;;;2.55;;
76953;SDS011;65893;51.698;-0.292;2023-06-22T13:41:57;7.43;;;3.10;;
76953;SDS011;65893;51.698;-0.292;2023-06-22T13:44:23;5.80;;;2.67;;
76953;SDS011;65893;51.698;-0.292;2023-06-22T13:46:53;5.82;;;2.63;;
76953;SDS011;65893;51.698;-0.292;2023-06-22T13:49:19;6.95;;;2.70;;
76953;SDS011;65893;51.698;-0.292;2023-06-22T13:51:46;6.00;;;1.83;;
76953;SDS011;65893;51.698;-0.292;2023-06-22T13:54:13;4.80;;;2.30;;
76953;SDS011;65893;51.698;-0.292;2023-06-22T13:56:40;6.40;;;2.38;;
76953;SDS011;65893;51.698;-0.292;2023-06-22T13:59:06;8.23;;;2.88;;
76953;SDS011;65893;51.698;-0.292;2023-06-22T14:01:34;7.15;;;2.60;;
76953;SDS011;65893;51.698;-0.292;2023-06-22T14:04:00;5.80;;;2.63;;
76953;SDS011;65893;51.698;-0.292;2023-06-22T14:06:29;5.93;;;2.70;;
76953;SDS011;65893;51.698;-0.292;2023-06-22T14:08:55;6.07;;;2.45;;
76953;SDS011;65893;51.698;-0.292;2023-06-22T14:11:21;6.10;;;2.92;;
76953;SDS011;65893;51.698;-0.292;2023-06-22T14:13:47;7.38;;;2.92;;
76953;SDS011;65893;51.698;-0.292;2023-06-22T14:16:13;7.97;;;2.15;;
76953;SDS011;65893;51.698;-0.292;2023-06-22T14:18:39;8.27;;;2.65;;
76953;SDS011;65893;51.698;-0.292;2023-06-22T14:21:05;6.93;;;2.90;;
76953;SDS011;65893;51.698;-0.292;2023-06-22T14:23:31;5.72;;;2.25;;
76953;SDS011;65893;51.698;-0.292;2023-06-22T14:25:57;5.90;;;2.67;;
76953;SDS011;65893;51.698;-0.292;2023-06-22T14:28:24;6.75;;;2.47;;
76953;SDS011;65893;51.698;-0.292;2023-06-22T14:30:50;4.90;;;2.30;;
76953;SDS011;65893;51.698;-0.292;2023-06-22T14:33:16;5.88;;;2.30;;
76953;SDS011;65893;51.698;-0.292;2023-06-22T14:35:44;5.53;;;2.30;;
76953;SDS011;65893;51.698;-0.292;2023-06-22T14:38:10;7.10;;;2.60;;